Time;durP1;ratioP1;P1;durP2;ratioP2;P2;SDS_P1;SDS_P2;PMS_P1;PMS_P2;Temp;Humidity;BMP_temperature;BMP_pressure;BME280_temperature;BME280_humidity;BME280_pressure;Samples;Min_cycle;Max_cycle;Signal;HPM_P1;HPM_P2
2023/01/09 00:02:22;;;;;;;0.80;0.80;;;18.00;70.10;;;;;;5095565;27;43923;-71
2023/01/09 00:04:50;;;;;;;0.80;0.80;;;18.10;70.00;;;;;;5086915;27;43564;-72
2023/01/09 00:07:18;;;;;;;0.63;0.63;;;18.20;69.60;;;;;;5081623;27;43395;-71
2023/01/09 00:09:46;;;;;;;0.70;0.70;;;18.30;69.40;;;;;;5100239;27;43553;-71
2023/01/09 00:12:13;;;;;;;0.70;0.70;;;18.30;69.20;;;;;;5091083;27;44100;-72
2023/01/09 00:14:43;;;;;;;0.60;0.60;;;18.30;69.20;;;;;;5093312;27;43421;-72
2023/01/09 00:17:11;;;;;;;0.97;0.97;;;18.20;69.50;;;;;;5078706;27;43978;-70
2023/01/09 00:19:39;;;;;;;0.80;0.80;;;18.30;69.50;;;;;;5096630;27;43478;-70
2023/01/09 00:22:08;;;;;;;0.80;0.80;;;18.20;69.40;;;;;;5102642;27;43919;-71
2023/01/09 00:24:36;;;;;;;0.80;0.80;;;18.20;69.40;;;;;;5100130;27;43431;-72
2023/01/09 00:27:05;;;;;;;0.87;0.80;;;18.10;69.50;;;;;;5094510;27;43375;-72
2023/01/09 00:29:33;;;;;;;0.70;0.70;;;18.00;69.60;;;;;;5104388;27;43434;-71
2023/01/09 00:32:02;;;;;;;0.80;0.80;;;18.00;70.10;;;;;;5093679;27;43983;-71
2023/01/09 00:34:30;;;;;;;0.70;0.70;;;18.00;70.00;;;;;;5091091;27;44053;-72
2023/01/09 00:36:58;;;;;;;0.90;0.90;;;18.00;69.90;;;;;;5098753;27;43467;-71
2023/01/09 00:39:26;;;;;;;0.80;0.80;;;18.00;70.00;;;;;;5096560;27;43605;-71
2023/01/09 00:41:54;;;;;;;0.70;0.70;;;17.90;70.00;;;;;;5097159;27;43606;-71
2023/01/09 00:44:23;;;;;;;0.90;0.90;;;17.90;70.30;;;;;;5094834;27;43494;-71
2023/01/09 00:46:53;;;;;;;0.60;0.60;;;17.90;70.40;;;;;;5102760;27;43441;-71
2023/01/09 00:49:22;;;;;;;0.60;0.60;;;18.00;70.20;;;;;;5091409;27;43506;-70
2023/01/09 00:51:50;;;;;;;0.70;0.70;;;18.10;69.90;;;;;;5080705;27;45789;-73
2023/01/09 00:54:18;;;;;;;0.70;0.70;;;18.20;69.60;;;;;;5091936;27;43494;-72
2023/01/09 00:56:46;;;;;;;0.73;0.73;;;18.20;69.60;;;;;;5079259;27;43483;-71
2023/01/09 00:59:14;;;;;;;0.80;0.80;;;18.10;69.80;;;;;;5080621;27;43990;-70
2023/01/09 01:01:42;;;;;;;0.70;0.70;;;18.10;69.90;;;;;;5101375;27;43541;-70
2023/01/09 01:09:42;;;;;;;0.70;0.70;;;18.00;69.70;;;;;;5088677;27;44019;-71
2023/01/09 01:12:10;;;;;;;0.60;0.60;;;18.00;69.90;;;;;;5079850;27;45719;-71
2023/01/09 01:14:38;;;;;;;0.60;0.60;;;17.90;70.20;;;;;;5095612;27;43549;-72
2023/01/09 01:17:06;;;;;;;0.60;0.60;;;17.90;70.10;;;;;;5092810;27;43392;-72
2023/01/09 01:19:34;;;;;;;0.77;0.77;;;17.90;70.00;;;;;;5100184;27;43881;-74
2023/01/09 01:22:03;;;;;;;0.70;0.70;;;17.90;70.10;;;;;;5101577;27;43998;-72
2023/01/09 01:24:31;;;;;;;0.57;0.57;;;17.90;70.30;;;;;;5077727;27;44838;-72
2023/01/09 01:26:59;;;;;;;0.60;0.60;;;17.90;70.40;;;;;;5090362;27;44040;-70
2023/01/09 01:29:27;;;;;;;0.60;0.60;;;17.90;70.60;;;;;;5107106;27;43406;-73
2023/01/09 01:31:55;;;;;;;0.60;0.60;;;17.90;70.30;;;;;;5105753;27;43890;-71
2023/01/09 01:34:23;;;;;;;0.60;0.60;;;18.00;69.90;;;;;;5097881;27;43499;-72
2023/01/09 01:36:51;;;;;;;0.47;0.47;;;18.00;69.80;;;;;;5101410;27;43402;-71
2023/01/09 01:39:20;;;;;;;0.63;0.63;;;18.00;69.80;;;;;;5104219;27;43915;-70
2023/01/09 01:41:48;;;;;;;0.70;0.70;;;18.00;70.10;;;;;;5103512;27;44013;-71
2023/01/09 01:44:54;;;;;;;0.60;0.60;;;18.00;70.10;;;;;;5096578;27;43456;-73
2023/01/09 01:47:22;;;;;;;0.50;0.50;;;18.00;70.00;;;;;;5098884;27;43407;-70
2023/01/09 01:49:49;;;;;;;0.50;0.50;;;18.00;70.00;;;;;;5103863;27;43461;-71
2023/01/09 01:52:18;;;;;;;0.70;0.70;;;17.90;70.00;;;;;;5100867;27;44166;-71
2023/01/09 01:54:47;;;;;;;0.50;0.50;;;17.90;70.20;;;;;;5087087;27;43418;-70
2023/01/09 01:57:15;;;;;;;0.47;0.47;;;17.90;70.50;;;;;;5087241;27;43617;-71
2023/01/09 01:59:48;;;;;;;0.60;0.60;;;17.90;70.40;;;;;;5106141;27;43468;-71
2023/01/09 02:02:17;;;;;;;0.50;0.50;;;18.00;70.10;;;;;;5102286;27;44020;-71
2023/01/09 02:04:45;;;;;;;0.60;0.60;;;18.00;69.80;;;;;;5076551;27;45226;-70
2023/01/09 02:07:13;;;;;;;0.60;0.60;;;18.00;69.80;;;;;;5102197;27;43510;-71
2023/01/09 02:09:43;;;;;;;0.50;0.50;;;18.00;69.90;;;;;;5101004;27;43434;-72
2023/01/09 02:12:17;;;;;;;0.60;0.60;;;17.90;70.20;;;;;;5094966;27;43830;-71
2023/01/09 02:14:45;;;;;;;0.40;0.40;;;18.00;70.10;;;;;;5095681;27;43490;-71
2023/01/09 02:17:17;;;;;;;0.50;0.50;;;18.00;70.10;;;;;;5099336;27;43426;-70
2023/01/09 02:20:06;;;;;;;0.50;0.50;;;17.90;70.00;;;;;;5092807;27;43435;-70
2023/01/09 02:22:36;;;;;;;0.50;0.50;;;17.90;70.10;;;;;;5083710;27;45874;-70
2023/01/09 02:25:33;;;;;;;0.50;0.50;;;17.90;70.30;;;;;;5083983;27;44736;-71
2023/01/09 02:28:19;;;;;;;0.50;0.50;;;17.80;70.30;;;;;;5101527;27;43450;-71
2023/01/09 02:30:49;;;;;;;0.67;0.67;;;17.80;70.30;;;;;;5096495;27;43450;-71
2023/01/09 02:33:32;;;;;;;0.67;0.60;;;17.90;70.30;;;;;;5090454;27;43924;-70
2023/01/09 02:36:12;;;;;;;0.50;0.50;;;17.80;70.30;;;;;;5097079;27;43359;-72
2023/01/09 02:38:47;;;;;;;0.60;0.60;;;17.80;70.30;;;;;;5095163;27;43442;-72
2023/01/09 02:41:20;;;;;;;0.60;0.60;;;17.80;70.60;;;;;;5097341;27;43392;-72
2023/01/09 02:43:48;;;;;;;0.40;0.40;;;17.90;70.50;;;;;;5105588;27;43940;-73
2023/01/09 02:46:19;;;;;;;0.70;0.70;;;18.00;70.20;;;;;;5090290;27;43383;-72
2023/01/09 02:48:48;;;;;;;0.50;0.50;;;18.10;69.80;;;;;;5104172;27;43406;-72
2023/01/09 02:51:21;;;;;;;0.40;0.40;;;18.20;69.50;;;;;;5102072;27;43423;-70
2023/01/09 02:54:00;;;;;;;0.60;0.60;;;18.10;69.30;;;;;;5095273;27;43918;-72
2023/01/09 02:56:47;;;;;;;0.60;0.60;;;18.10;69.60;;;;;;5082828;27;43476;-72
2023/01/09 02:59:24;;;;;;;0.50;0.50;;;18.10;69.60;;;;;;5098151;27;43505;-71
2023/01/09 03:02:07;;;;;;;0.63;0.63;;;18.10;69.60;;;;;;5096876;27;43451;-71
2023/01/09 03:04:42;;;;;;;0.50;0.50;;;18.00;69.60;;;;;;5097913;27;43619;-72
2023/01/09 03:07:15;;;;;;;0.57;0.57;;;18.00;69.80;;;;;;5091249;27;43442;-71
2023/01/09 03:09:43;;;;;;;0.30;0.30;;;17.90;69.90;;;;;;5088761;27;43392;-71
2023/01/09 03:12:15;;;;;;;0.53;0.53;;;17.90;70.30;;;;;;5101138;27;43954;-70
2023/01/09 03:14:45;;;;;;;0.40;0.40;;;17.90;70.20;;;;;;5102278;27;43753;-71
2023/01/09 03:17:18;;;;;;;0.40;0.40;;;17.90;70.10;;;;;;5094901;27;43594;-71
2023/01/09 03:19:46;;;;;;;0.50;0.50;;;17.90;70.20;;;;;;5091337;27;43456;-72
2023/01/09 03:22:14;;;;;;;0.57;0.57;;;17.80;70.20;;;;;;5105503;27;43428;-72
2023/01/09 03:24:42;;;;;;;0.40;0.40;;;17.80;70.30;;;;;;5106916;27;43931;-70
2023/01/09 03:27:09;;;;;;;0.40;0.40;;;17.80;70.50;;;;;;5103157;27;43485;-70
2023/01/09 03:29:37;;;;;;;0.50;0.50;;;17.90;70.30;;;;;;5099777;27;43390;-71
2023/01/09 03:32:06;;;;;;;0.50;0.50;;;18.00;70.00;;;;;;5105384;27;43613;-73
2023/01/09 03:34:35;;;;;;;0.30;0.30;;;18.10;69.80;;;;;;5104974;27;43943;-70
2023/01/09 03:37:04;;;;;;;0.53;0.53;;;18.00;69.70;;;;;;5098670;27;43429;-71
2023/01/09 03:39:31;;;;;;;0.50;0.50;;;18.00;69.80;;;;;;5081869;27;44065;-72
2023/01/09 03:41:59;;;;;;;0.50;0.50;;;18.00;70.00;;;;;;5096532;27;43462;-71
2023/01/09 03:44:27;;;;;;;0.43;0.43;;;18.00;69.90;;;;;;5081085;27;45585;-70
2023/01/09 03:46:55;;;;;;;0.30;0.30;;;17.90;69.80;;;;;;5100658;27;43430;-72
2023/01/09 03:49:24;;;;;;;0.30;0.30;;;17.90;69.90;;;;;;5097917;27;43371;-71
2023/01/09 03:51:53;;;;;;;0.60;0.60;;;17.90;70.00;;;;;;5098596;27;43474;-71
2023/01/09 03:54:21;;;;;;;0.50;0.50;;;17.80;70.20;;;;;;5105200;27;43608;-71
2023/01/09 03:56:49;;;;;;;0.50;0.50;;;17.80;70.30;;;;;;5093071;27;43469;-71
2023/01/09 03:59:17;;;;;;;0.60;0.60;;;17.80;70.20;;;;;;5093729;27;43621;-72
2023/01/09 04:01:45;;;;;;;0.30;0.30;;;17.80;70.20;;;;;;5103649;27;43356;-70
2023/01/09 04:04:13;;;;;;;0.30;0.30;;;17.80;70.20;;;;;;5093855;27;43844;-71
2023/01/09 04:06:41;;;;;;;0.40;0.40;;;17.80;70.30;;;;;;5105012;27;43357;-71
2023/01/09 04:09:10;;;;;;;0.50;0.50;;;17.80;70.50;;;;;;5100781;27;44388;-72
2023/01/09 04:11:38;;;;;;;0.60;0.60;;;17.80;70.50;;;;;;5074600;27;43478;-71
2023/01/09 04:14:06;;;;;;;0.47;0.47;;;17.80;70.30;;;;;;5100390;27;43927;-71
2023/01/09 04:16:34;;;;;;;0.20;0.20;;;17.80;70.30;;;;;;5080287;27;44945;-71
2023/01/09 04:19:02;;;;;;;0.40;0.40;;;17.80;70.30;;;;;;5084765;27;43373;-72
2023/01/09 04:21:30;;;;;;;0.30;0.30;;;17.80;70.40;;;;;;5097175;27;43395;-72
2023/01/09 04:23:58;;;;;;;0.50;0.50;;;17.80;70.60;;;;;;5097821;27;43599;-70
2023/01/09 04:26:27;;;;;;;0.50;0.50;;;17.80;70.60;;;;;;5096865;27;43344;-72
2023/01/09 04:28:55;;;;;;;0.50;0.50;;;17.90;70.20;;;;;;5101757;27;43470;-70
2023/01/09 04:31:23;;;;;;;0.57;0.57;;;18.10;69.80;;;;;;5084100;27;43466;-70
2023/01/09 04:33:51;;;;;;;0.30;0.30;;;18.20;69.40;;;;;;5096542;27;45040;-71
2023/01/09 04:36:19;;;;;;;0.40;0.40;;;18.10;69.20;;;;;;5099193;27;43427;-69
2023/01/09 04:38:47;;;;;;;0.57;0.57;;;18.10;69.50;;;;;;5076824;27;43532;-72
2023/01/09 04:41:47;;;;;;;0.30;0.30;;;18.10;69.50;;;;;;5078376;27;44060;-72
2023/01/09 04:44:04;;;;;;;0.47;0.47;;;18.10;69.50;;;;;;5084293;27;46235;-71
2023/01/09 04:46:32;;;;;;;0.43;0.43;;;18.00;69.40;;;;;;5097549;27;43897;-72
2023/01/09 04:49:00;;;;;;;0.40;0.40;;;18.00;69.60;;;;;;5077266;27;43485;-71
2023/01/09 04:51:28;;;;;;;0.43;0.43;;;17.90;69.70;;;;;;5101266;27;43546;-71
2023/01/09 04:53:55;;;;;;;0.40;0.40;;;17.90;70.00;;;;;;5092021;27;43936;-72
2023/01/09 04:56:23;;;;;;;0.37;0.37;;;17.90;70.10;;;;;;5089107;27;43481;-70
2023/01/09 04:58:51;;;;;;;0.40;0.40;;;17.90;70.00;;;;;;5100188;27;43999;-72
2023/01/09 05:01:21;;;;;;;0.40;0.40;;;17.90;70.10;;;;;;5085505;27;43572;-72
2023/01/09 05:03:49;;;;;;;0.40;0.40;;;17.80;70.10;;;;;;5084078;28;46288;-71
2023/01/09 05:06:17;;;;;;;0.40;0.40;;;17.80;70.20;;;;;;5082594;27;44993;-71
2023/01/09 05:08:45;;;;;;;0.50;0.50;;;17.80;70.50;;;;;;5103202;27;43513;-71
2023/01/09 05:11:12;;;;;;;0.47;0.47;;;17.90;70.40;;;;;;5099180;27;43928;-71
2023/01/09 05:13:40;;;;;;;0.60;0.60;;;18.00;70.10;;;;;;5102764;27;43950;-72
2023/01/09 05:16:09;;;;;;;0.50;0.50;;;18.00;69.70;;;;;;5084325;27;45145;-71
2023/01/09 05:18:38;;;;;;;0.57;0.40;;;18.00;69.60;;;;;;5102838;27;43947;-71
2023/01/09 05:21:06;;;;;;;0.40;0.40;;;18.00;69.70;;;;;;5081910;28;43530;-72
2023/01/09 05:23:34;;;;;;;0.53;0.53;;;17.90;69.90;;;;;;5100576;27;43941;-71
2023/01/09 05:26:03;;;;;;;0.50;0.50;;;17.90;69.80;;;;;;5099095;27;44039;-70
2023/01/09 05:28:31;;;;;;;0.47;0.47;;;17.90;69.80;;;;;;5107864;27;44023;-70
2023/01/09 05:30:58;;;;;;;0.40;0.40;;;17.90;69.90;;;;;;5095157;27;43893;-71
2023/01/09 05:33:26;;;;;;;0.30;0.30;;;17.90;70.00;;;;;;5093582;27;43889;-70
2023/01/09 05:35:56;;;;;;;0.50;0.50;;;17.80;70.10;;;;;;5092983;27;44071;-72
2023/01/09 05:38:23;;;;;;;0.50;0.50;;;17.80;70.30;;;;;;5091854;27;44141;-70
2023/01/09 05:40:52;;;;;;;0.40;0.40;;;17.80;70.20;;;;;;5073249;28;43558;-71
2023/01/09 05:43:19;;;;;;;0.30;0.30;;;17.80;70.20;;;;;;5090301;27;43939;-70
2023/01/09 05:45:47;;;;;;;0.40;0.40;;;17.80;70.20;;;;;;5093367;27;43462;-72
2023/01/09 05:48:15;;;;;;;0.50;0.50;;;17.70;70.20;;;;;;5092093;27;44075;-72
2023/01/09 05:50:43;;;;;;;0.43;0.43;;;17.70;70.40;;;;;;5105340;27;43447;-72
2023/01/09 05:53:12;;;;;;;0.50;0.50;;;17.80;70.60;;;;;;5102369;27;43912;-71
2023/01/09 05:55:40;;;;;;;0.53;0.53;;;17.90;70.30;;;;;;5095971;27;43502;-70
2023/01/09 05:58:08;;;;;;;0.43;0.43;;;18.00;69.90;;;;;;5103790;27;43417;-71
2023/01/09 06:00:36;;;;;;;0.33;0.33;;;18.00;69.50;;;;;;5101324;27;44146;-71
2023/01/09 06:03:04;;;;;;;0.50;0.50;;;18.00;69.40;;;;;;5081970;27;45767;-73
2023/01/09 06:05:32;;;;;;;0.30;0.30;;;18.00;69.60;;;;;;5085716;28;44886;-70
2023/01/09 06:08:00;;;;;;;0.50;0.50;;;18.00;70.50;;;;;;5103998;27;43420;-72
2023/01/09 06:10:29;;;;;;;0.60;0.60;;;18.00;69.60;;;;;;5103313;27;43426;-71
2023/01/09 06:12:57;;;;;;;0.60;0.60;;;18.00;69.60;;;;;;5078510;27;45769;-71
2023/01/09 06:15:25;;;;;;;0.43;0.43;;;17.90;69.60;;;;;;5101162;27;43411;-72
2023/01/09 06:17:53;;;;;;;0.60;0.60;;;17.90;69.70;;;;;;5089303;27;43938;-70
2023/01/09 06:20:21;;;;;;;0.60;0.60;;;17.90;69.90;;;;;;5089278;27;43531;-72
2023/01/09 06:22:50;;;;;;;0.50;0.50;;;17.80;70.00;;;;;;5088660;27;43935;-73
2023/01/09 06:25:18;;;;;;;0.57;0.57;;;17.90;69.90;;;;;;5095196;27;43372;-72
2023/01/09 06:27:48;;;;;;;0.60;0.60;;;17.90;69.70;;;;;;5093782;27;43929;-71
2023/01/09 06:30:17;;;;;;;0.53;0.53;;;17.90;69.80;;;;;;5093784;27;43444;-72
2023/01/09 06:32:45;;;;;;;0.50;0.50;;;17.80;69.90;;;;;;5105457;27;43911;-72
2023/01/09 06:35:13;;;;;;;0.50;0.50;;;17.80;69.90;;;;;;5100302;27;43386;-72
2023/01/09 06:37:40;;;;;;;0.40;0.40;;;17.80;70.30;;;;;;5091750;27;43388;-72
2023/01/09 06:40:10;;;;;;;0.50;0.50;;;17.90;70.10;;;;;;5085103;27;43940;-71
2023/01/09 06:42:38;;;;;;;0.40;0.40;;;18.00;69.80;;;;;;5101956;27;43834;-71
2023/01/09 06:45:08;;;;;;;0.57;0.57;;;18.00;69.40;;;;;;5084931;27;44739;-70
2023/01/09 06:47:36;;;;;;;0.60;0.60;;;18.00;69.30;;;;;;5090635;27;43439;-73
2023/01/09 06:50:04;;;;;;;0.50;0.50;;;18.00;69.40;;;;;;5097611;27;43558;-71
2023/01/09 06:52:32;;;;;;;0.70;0.70;;;18.00;69.80;;;;;;5097848;27;44115;-72
2023/01/09 06:55:00;;;;;;;0.50;0.50;;;18.00;69.60;;;;;;5102461;27;43407;-70
2023/01/09 06:57:28;;;;;;;0.60;0.60;;;17.90;69.60;;;;;;5095250;27;43396;-72
2023/01/09 06:59:56;;;;;;;0.40;0.40;;;17.90;69.50;;;;;;5099008;27;43482;-70
2023/01/09 07:02:25;;;;;;;0.70;0.70;;;17.90;69.60;;;;;;5103824;27;43654;-70
2023/01/09 07:04:55;;;;;;;0.60;0.60;;;17.80;69.80;;;;;;5103421;27;43426;-72
2023/01/09 07:07:23;;;;;;;0.60;0.60;;;17.80;70.00;;;;;;5101040;27;43348;-71
2023/01/09 07:09:51;;;;;;;0.50;0.50;;;17.80;69.80;;;;;;5106283;27;43409;-72
2023/01/09 07:12:19;;;;;;;0.40;0.40;;;17.80;69.70;;;;;;5102675;27;44070;-71
2023/01/09 07:14:47;;;;;;;0.57;0.57;;;17.80;69.80;;;;;;5101853;27;43503;-71
2023/01/09 07:17:15;;;;;;;0.60;0.60;;;17.80;70.00;;;;;;5084262;27;43439;-71
2023/01/09 07:19:44;;;;;;;0.50;0.50;;;17.80;70.20;;;;;;5099052;27;43391;-71
2023/01/09 07:22:12;;;;;;;0.53;0.53;;;17.80;70.20;;;;;;5107121;27;43918;-72
2023/01/09 07:24:40;;;;;;;0.50;0.50;;;17.80;70.00;;;;;;5100506;27;43470;-71
2023/01/09 07:27:08;;;;;;;0.40;0.40;;;17.80;69.90;;;;;;5100828;27;43551;-71
2023/01/09 07:29:36;;;;;;;0.67;0.67;;;17.80;69.90;;;;;;5097465;27;43888;-70
2023/01/09 07:32:04;;;;;;;0.43;0.43;;;17.80;70.10;;;;;;5083581;27;45728;-70
2023/01/09 07:34:32;;;;;;;1.80;0.50;;;17.80;70.50;;;;;;5097483;27;43410;-71
2023/01/09 07:37:01;;;;;;;0.60;0.60;;;17.80;70.40;;;;;;5078179;27;43429;-74
2023/01/09 07:39:29;;;;;;;0.50;0.50;;;17.90;70.00;;;;;;5102377;27;43439;-71
2023/01/09 07:41:57;;;;;;;0.60;0.60;;;18.00;69.70;;;;;;5076697;27;45760;-70
2023/01/09 07:44:26;;;;;;;0.60;0.60;;;18.10;69.40;;;;;;5103245;27;43452;-72
2023/01/09 07:46:53;;;;;;;0.50;0.50;;;18.00;69.10;;;;;;5095189;27;43844;-71
2023/01/09 07:49:21;;;;;;;0.40;0.40;;;18.00;69.50;;;;;;5091650;27;43597;-72
2023/01/09 07:51:51;;;;;;;0.60;0.60;;;18.00;69.50;;;;;;5090156;27;43583;-72
2023/01/09 07:54:20;;;;;;;0.50;0.50;;;18.00;69.30;;;;;;5088810;27;43485;-70
2023/01/09 07:56:48;;;;;;;0.40;0.40;;;17.90;69.30;;;;;;5086930;27;44027;-73
2023/01/09 07:59:16;;;;;;;0.50;0.50;;;17.90;69.40;;;;;;5072872;27;43466;-70
2023/01/09 08:01:44;;;;;;;0.50;0.50;;;17.90;69.60;;;;;;5090212;27;43757;-71
2023/01/09 08:04:13;;;;;;;0.43;0.43;;;17.80;70.00;;;;;;5089955;27;43418;-71
2023/01/09 08:06:41;;;;;;;0.60;0.60;;;17.80;69.90;;;;;;5088368;27;43434;-72
2023/01/09 08:09:09;;;;;;;0.43;0.40;;;17.80;69.70;;;;;;5091785;27;43477;-72
2023/01/09 08:11:38;;;;;;;0.53;0.53;;;17.90;69.70;;;;;;5087607;27;44288;-70
2023/01/09 08:14:06;;;;;;;0.63;0.63;;;17.80;69.70;;;;;;5089340;27;43426;-72
2023/01/09 08:16:34;;;;;;;0.40;0.40;;;17.80;69.80;;;;;;5089938;27;43529;-72
2023/01/09 08:19:02;;;;;;;0.40;0.40;;;17.80;70.20;;;;;;5089503;27;43562;-70
2023/01/09 08:21:30;;;;;;;0.70;0.70;;;17.80;70.00;;;;;;5091638;27;43963;-71
2023/01/09 08:23:58;;;;;;;0.50;0.50;;;17.80;69.70;;;;;;5090748;27;43474;-70
2023/01/09 08:26:26;;;;;;;0.50;0.50;;;17.80;69.80;;;;;;5070716;27;44126;-71
2023/01/09 08:28:55;;;;;;;0.80;0.80;;;17.80;69.80;;;;;;5093736;27;43507;-71
2023/01/09 08:31:23;;;;;;;0.47;0.47;;;17.80;69.90;;;;;;5092750;27;43940;-71
2023/01/09 08:33:51;;;;;;;0.40;0.40;;;17.80;70.30;;;;;;5094223;27;43789;-72
2023/01/09 08:36:19;;;;;;;1.40;0.60;;;17.80;70.10;;;;;;5093589;27;43426;-70
2023/01/09 08:38:47;;;;;;;0.40;0.40;;;18.00;69.80;;;;;;5075367;27;43507;-72
2023/01/09 08:47:05;;;;;;;0.40;0.40;;;18.10;68.80;;;;;;5091568;27;43509;-69
2023/01/09 08:49:33;;;;;;;0.50;0.50;;;18.10;69.30;;;;;;5096534;27;43471;-73
2023/01/09 08:52:01;;;;;;;0.50;0.50;;;18.10;69.20;;;;;;5091028;27;43903;-71
2023/01/09 08:54:29;;;;;;;0.57;0.57;;;18.00;69.00;;;;;;5092384;27;43456;-72
2023/01/09 08:56:58;;;;;;;0.63;0.63;;;18.00;69.10;;;;;;5088121;27;43502;-71
2023/01/09 08:59:27;;;;;;;0.80;0.80;;;18.00;69.30;;;;;;5094241;27;43399;-71
2023/01/09 09:01:55;;;;;;;0.50;0.50;;;17.90;69.40;;;;;;5094630;27;43654;-70
2023/01/09 09:04:23;;;;;;;0.50;0.50;;;17.90;69.90;;;;;;5092765;27;43526;-71
2023/01/09 09:06:51;;;;;;;0.70;0.70;;;17.90;69.60;;;;;;5090171;27;43576;-70
2023/01/09 09:09:19;;;;;;;0.60;0.60;;;17.90;69.60;;;;;;5093525;27;43368;-72
2023/01/09 09:11:47;;;;;;;0.60;0.60;;;17.80;69.60;;;;;;5093701;27;43973;-71
2023/01/09 09:17:02;;;;;;;0.60;0.60;;;17.80;69.80;;;;;;5092554;27;43885;-71
2023/01/09 09:19:30;;;;;;;0.87;0.87;;;17.80;70.10;;;;;;5095430;27;43484;-71
2023/01/09 09:21:58;;;;;;;0.50;0.50;;;17.90;70.00;;;;;;5093318;27;43917;-71
2023/01/09 09:24:26;;;;;;;0.47;0.47;;;18.00;69.60;;;;;;5093844;27;44018;-71
2023/01/09 09:26:53;;;;;;;0.60;0.60;;;18.00;69.30;;;;;;5092902;27;43496;-70
2023/01/09 09:29:21;;;;;;;0.50;0.50;;;18.00;69.30;;;;;;5091557;27;43431;-72
2023/01/09 09:31:49;;;;;;;0.60;0.60;;;17.90;69.30;;;;;;5092427;27;44087;-71
2023/01/09 09:34:19;;;;;;;0.80;0.80;;;17.90;69.70;;;;;;5092601;27;44008;-72
2023/01/09 09:36:47;;;;;;;4.70;0.90;;;17.90;69.20;;;;;;5091180;27;43437;-71
2023/01/09 09:39:14;;;;;;;1.23;0.93;;;17.90;69.20;;;;;;5093132;27;43951;-71
2023/01/09 09:45:01;;;;;;;2.17;0.70;;;17.80;69.30;;;;;;5093104;27;43479;-71
2023/01/09 09:47:42;;;;;;;9.77;1.03;;;17.80;69.60;;;;;;5091488;27;44030;-72
2023/01/09 09:50:32;;;;;;;3.97;0.83;;;17.80;69.80;;;;;;5093656;27;44503;-72
2023/01/09 09:53:03;;;;;;;3.53;0.80;;;17.90;69.50;;;;;;5088716;27;45066;-70
2023/01/09 09:55:32;;;;;;;1.37;0.77;;;18.00;69.10;;;;;;5090832;27;43378;-72
2023/01/09 09:58:01;;;;;;;3.07;1.07;;;18.00;69.10;;;;;;5092996;27;43781;-70
2023/01/09 10:00:29;;;;;;;1.60;0.70;;;18.00;69.10;;;;;;5095369;27;43901;-72
2023/01/09 10:02:58;;;;;;;4.13;0.90;;;17.90;69.30;;;;;;5072487;28;45319;-72
2023/01/09 10:05:29;;;;;;;1.50;0.90;;;17.90;69.30;;;;;;5090545;27;43401;-72
2023/01/09 10:08:01;;;;;;;1.47;0.90;;;17.90;69.30;;;;;;5090649;27;43386;-72
2023/01/09 10:10:44;;;;;;;1.20;0.77;;;17.90;69.30;;;;;;5095573;27;43372;-72
2023/01/09 10:16:02;;;;;;;2.40;0.80;;;17.80;69.40;;;;;;5104102;27;43409;-71
2023/01/09 10:18:34;;;;;;;0.80;0.70;;;17.80;69.80;;;;;;5105185;27;43515;-70
2023/01/09 10:21:05;;;;;;;1.17;1.17;;;17.80;69.60;;;;;;5097953;27;43448;-71
2023/01/09 10:23:52;;;;;;;0.70;0.70;;;17.80;69.50;;;;;;5107335;27;43802;-71
2023/01/09 10:26:22;;;;;;;0.63;0.63;;;17.80;69.70;;;;;;5078986;27;45155;-70
2023/01/09 10:29:04;;;;;;;1.10;0.83;;;17.80;69.90;;;;;;5102494;27;43349;-72
2023/01/09 10:31:35;;;;;;;0.80;0.80;;;17.80;70.10;;;;;;5080032;27;43519;-73
2023/01/09 10:34:10;;;;;;;1.53;1.07;;;17.80;70.30;;;;;;5095598;27;43595;-72
2023/01/09 10:37:10;;;;;;;3.50;0.77;;;17.90;70.00;;;;;;5099153;27;43845;-72
2023/01/09 10:39:41;;;;;;;1.77;0.87;;;18.00;69.70;;;;;;5099010;27;43432;-71
2023/01/09 10:42:12;;;;;;;0.70;0.70;;;18.00;69.50;;;;;;5085835;27;44091;-72
2023/01/09 10:44:44;;;;;;;0.67;0.67;;;18.00;69.60;;;;;;5101820;27;43838;-71
2023/01/09 10:47:15;;;;;;;1.30;0.87;;;17.90;69.70;;;;;;5106472;27;43493;-72
2023/01/09 10:49:45;;;;;;;0.53;0.53;;;18.00;69.80;;;;;;5102654;27;43377;-72
2023/01/09 10:52:16;;;;;;;0.80;0.80;;;17.90;69.60;;;;;;5105885;27;43398;-72
2023/01/09 10:54:49;;;;;;;0.90;0.90;;;17.90;69.90;;;;;;5101305;27;43768;-70
2023/01/09 10:57:24;;;;;;;0.80;0.80;;;17.90;70.00;;;;;;5092979;27;43434;-71
2023/01/09 10:59:52;;;;;;;0.80;0.80;;;17.90;70.10;;;;;;5089123;27;43470;-70
2023/01/09 11:02:24;;;;;;;0.80;0.80;;;17.80;70.30;;;;;;5097678;27;44037;-71
2023/01/09 11:04:52;;;;;;;0.93;0.77;;;17.80;70.20;;;;;;5098062;27;43609;-72
2023/01/09 11:07:23;;;;;;;0.83;0.80;;;17.80;70.10;;;;;;5097564;27;44154;-72
2023/01/09 11:09:58;;;;;;;1.07;1.00;;;17.80;70.30;;;;;;5102040;27;43456;-72
2023/01/09 11:12:26;;;;;;;0.80;0.80;;;17.80;70.30;;;;;;5100891;27;43482;-71
2023/01/09 11:14:54;;;;;;;0.90;0.90;;;17.80;70.40;;;;;;5080280;27;45749;-72
2023/01/09 11:17:25;;;;;;;0.90;0.90;;;17.80;70.70;;;;;;5098371;27;44125;-70
2023/01/09 11:20:01;;;;;;;0.70;0.70;;;17.90;70.60;;;;;;5095437;27;43453;-72
2023/01/09 11:22:41;;;;;;;0.90;0.90;;;18.00;70.30;;;;;;5097360;27;43526;-71
2023/01/09 11:25:12;;;;;;;0.90;0.90;;;18.00;69.90;;;;;;5104515;27;43742;-71
2023/01/09 11:27:40;;;;;;;0.93;0.93;;;18.00;69.70;;;;;;5101120;27;43536;-71
2023/01/09 11:30:21;;;;;;;0.90;0.90;;;18.00;69.90;;;;;;5102900;27;43488;-70
2023/01/09 11:32:49;;;;;;;0.80;0.80;;;18.00;70.20;;;;;;5091929;27;43407;-71
2023/01/09 11:35:19;;;;;;;0.83;0.83;;;18.00;70.00;;;;;;5098415;27;44047;-71
2023/01/09 11:37:50;;;;;;;0.97;0.97;;;17.90;70.00;;;;;;5106081;27;43488;-70
2023/01/09 11:40:19;;;;;;;0.70;0.70;;;17.90;70.10;;;;;;5102691;27;43368;-70
2023/01/09 11:43:14;;;;;;;0.93;0.93;;;17.90;70.20;;;;;;5097439;27;43511;-71
2023/01/09 11:45:47;;;;;;;0.80;0.80;;;17.80;70.40;;;;;;5099576;27;43790;-71
2023/01/09 11:48:38;;;;;;;0.90;0.90;;;17.80;70.30;;;;;;5093820;27;43488;-72
2023/01/09 11:51:17;;;;;;;0.80;0.80;;;17.80;70.20;;;;;;5101763;27;43435;-73
2023/01/09 11:53:59;;;;;;;1.00;1.00;;;17.80;71.00;;;;;;5098792;27;43435;-72
2023/01/09 11:56:27;;;;;;;0.90;0.90;;;17.80;70.30;;;;;;5091074;27;43900;-72
2023/01/09 11:58:55;;;;;;;1.00;1.00;;;17.80;70.50;;;;;;5105418;27;43391;-71
2023/01/09 12:01:49;;;;;;;0.97;0.97;;;17.80;70.70;;;;;;5100643;27;44280;-72
2023/01/09 12:04:22;;;;;;;1.13;1.13;;;17.80;70.40;;;;;;5094100;27;43395;-72
2023/01/09 12:06:57;;;;;;;1.10;1.00;;;17.90;70.00;;;;;;5099898;27;43616;-72
2023/01/09 12:09:28;;;;;;;1.00;1.00;;;18.00;69.80;;;;;;5097067;27;43546;-71
2023/01/09 12:12:00;;;;;;;1.20;1.20;;;17.90;69.70;;;;;;5100923;27;43446;-72
2023/01/09 12:14:34;;;;;;;1.00;1.00;;;17.90;69.90;;;;;;5098463;27;43438;-70
2023/01/09 12:17:35;;;;;;;0.80;0.80;;;17.90;70.20;;;;;;5101029;27;43851;-71
2023/01/09 12:20:29;;;;;;;0.80;0.80;;;17.90;70.00;;;;;;5100999;27;43403;-70
2023/01/09 12:23:03;;;;;;;0.90;0.90;;;17.90;70.10;;;;;;5092000;27;43952;-72
2023/01/09 12:25:38;;;;;;;0.83;0.83;;;17.80;70.10;;;;;;5082777;27;43467;-72
2023/01/09 12:28:15;;;;;;;1.00;1.00;;;17.80;70.20;;;;;;5081444;27;45943;-71
2023/01/09 12:30:49;;;;;;;1.43;1.10;;;17.80;70.10;;;;;;5095559;27;43406;-70
2023/01/09 12:33:25;;;;;;;0.90;0.90;;;17.80;69.80;;;;;;5100586;27;43806;-71
2023/01/09 12:35:57;;;;;;;1.10;1.10;;;17.80;70.00;;;;;;5102850;27;43449;-71
2023/01/09 12:38:35;;;;;;;1.30;0.70;;;17.70;70.10;;;;;;5082919;28;44308;-71
2023/01/09 12:41:11;;;;;;;2.20;0.90;;;17.70;70.20;;;;;;5082296;28;43394;-71
2023/01/09 12:43:42;;;;;;;1.13;1.00;;;17.70;70.20;;;;;;5081130;28;43960;-71
2023/01/09 12:46:14;;;;;;;1.50;1.20;;;17.70;70.50;;;;;;5077925;28;43453;-71
2023/01/09 12:48:50;;;;;;;0.90;0.90;;;17.80;70.40;;;;;;5076012;28;43923;-73
2023/01/09 12:51:31;;;;;;;1.03;0.87;;;17.90;70.00;;;;;;5076947;28;44027;-70
2023/01/09 12:54:01;;;;;;;1.50;0.93;;;18.00;69.60;;;;;;5078777;28;43444;-71
2023/01/09 12:56:32;;;;;;;1.10;1.10;;;18.00;69.50;;;;;;5064153;28;43991;-70
2023/01/09 12:59:01;;;;;;;1.10;1.10;;;18.00;69.50;;;;;;5067668;28;43924;-73
2023/01/09 13:01:31;;;;;;;1.00;0.97;;;18.00;69.90;;;;;;5076676;28;44008;-72
2023/01/09 13:04:09;;;;;;;0.80;0.80;;;18.00;69.80;;;;;;5080820;28;43391;-71
2023/01/09 13:06:37;;;;;;;1.20;1.10;;;17.90;69.60;;;;;;5080662;28;43498;-73
2023/01/09 13:09:12;;;;;;;1.10;1.10;;;17.90;69.70;;;;;;5072142;28;45457;-71
2023/01/09 13:11:45;;;;;;;1.47;1.37;;;17.90;70.00;;;;;;5076507;28;43443;-72
2023/01/09 13:14:14;;;;;;;1.93;1.50;;;17.80;70.00;;;;;;5076429;27;43503;-71
2023/01/09 13:16:44;;;;;;;2.47;1.87;;;17.80;70.30;;;;;;5079805;28;43483;-71
2023/01/09 13:19:14;;;;;;;4.77;2.10;;;17.80;70.30;;;;;;5084440;28;43629;-70
2023/01/09 13:21:42;;;;;;;4.00;2.40;;;17.80;70.30;;;;;;5079876;28;43395;-71
2023/01/09 13:24:14;;;;;;;5.00;2.87;;;17.80;70.30;;;;;;5081103;28;43325;-72
2023/01/09 13:26:45;;;;;;;5.03;2.33;;;17.80;70.50;;;;;;5085427;28;43468;-70